createdAt,value
2023-04-21T00:00:41.083Z,41.53
2023-04-21T00:01:41.070Z,41.32
2023-04-21T00:02:41.288Z,41.43
2023-04-21T00:03:41.271Z,41.42
2023-04-21T00:04:41.335Z,41.54
2023-04-21T00:05:41.192Z,41.40
2023-04-21T00:06:41.082Z,41.60
2023-04-21T00:07:41.092Z,41.38
2023-04-21T00:08:41.067Z,41.47
2023-04-21T00:09:41.082Z,41.38
2023-04-21T00:10:41.088Z,41.35
2023-04-21T00:11:41.125Z,41.21
2023-04-21T00:12:41.061Z,41.34
2023-04-21T00:13:41.085Z,41.37
2023-04-21T00:14:41.070Z,41.29
2023-04-21T00:15:41.186Z,41.21
2023-04-21T00:16:41.300Z,40.99
2023-04-21T00:17:41.098Z,41.26
2023-04-21T00:18:41.083Z,41.34
2023-04-21T00:19:41.074Z,41.31
2023-04-21T00:20:41.068Z,41.29
2023-04-21T00:21:41.221Z,41.31
2023-04-21T00:22:41.034Z,41.14
2023-04-21T00:23:41.065Z,41.10
2023-04-21T00:24:41.067Z,41.15
2023-04-21T00:25:41.021Z,41.06
2023-04-21T00:26:41.050Z,41.21
2023-04-21T00:27:41.020Z,41.14
2023-04-21T00:28:40.997Z,41.19
2023-04-21T00:29:41.059Z,40.91
2023-04-21T00:30:41.008Z,40.75
2023-04-21T00:31:41.064Z,40.60
2023-04-21T00:32:40.986Z,40.72
2023-04-21T00:33:40.987Z,40.72
2023-04-21T00:34:41.041Z,40.59
2023-04-21T00:35:41.103Z,40.86
2023-04-21T00:36:41.124Z,40.91
2023-04-21T00:37:41.192Z,40.89
2023-04-21T00:38:41.225Z,40.66
2023-04-21T00:39:41.275Z,40.89
2023-04-21T00:40:41.309Z,40.65
2023-04-21T00:41:43.309Z,40.76
2023-04-21T00:42:41.354Z,40.89
2023-04-21T00:43:41.322Z,41.03
2023-04-21T00:44:41.334Z,40.80
2023-04-21T00:45:41.362Z,40.81
2023-04-21T00:46:41.392Z,40.70
2023-04-21T00:47:41.357Z,40.88
2023-04-21T00:48:41.307Z,40.75
2023-04-21T00:49:41.320Z,40.78
2023-04-21T00:50:41.348Z,40.82
2023-04-21T00:51:41.332Z,40.90
2023-04-21T00:52:41.294Z,40.61
2023-04-21T00:53:41.329Z,40.63
2023-04-21T00:54:41.309Z,40.87
2023-04-21T00:55:41.311Z,40.77
2023-04-21T00:56:41.313Z,40.64
2023-04-21T00:57:41.329Z,40.67
2023-04-21T00:58:41.330Z,40.73
2023-04-21T00:59:41.324Z,40.66
2023-04-21T01:00:41.328Z,40.66
2023-04-21T01:01:41.330Z,40.73
2023-04-21T01:02:41.421Z,40.75
2023-04-21T01:03:41.640Z,40.58
2023-04-21T01:04:41.326Z,40.50
2023-04-21T01:05:41.314Z,40.36
2023-04-21T01:06:41.336Z,40.63
2023-04-21T01:07:41.333Z,40.72
2023-04-21T01:08:41.308Z,40.73
2023-04-21T01:09:41.331Z,40.86
2023-04-21T01:10:41.306Z,40.47
2023-04-21T01:11:41.307Z,40.59
2023-04-21T01:12:41.286Z,40.52
2023-04-21T01:13:41.351Z,40.45
2023-04-21T01:14:41.290Z,40.61
2023-04-21T01:15:41.289Z,40.24
2023-04-21T01:16:41.370Z,40.45
2023-04-21T01:17:41.300Z,40.71
2023-04-21T01:18:41.283Z,40.55
2023-04-21T01:19:41.291Z,40.64
2023-04-21T01:20:41.275Z,40.60
2023-04-21T01:21:41.283Z,40.55
2023-04-21T01:22:41.350Z,40.64
2023-04-21T01:23:41.400Z,40.69
2023-04-21T01:24:41.445Z,40.81
2023-04-21T01:25:41.495Z,40.50
2023-04-21T01:26:41.541Z,40.40
2023-04-21T01:27:41.568Z,40.67
2023-04-21T01:28:41.596Z,40.70
2023-04-21T01:29:41.661Z,40.51
2023-04-21T01:30:41.681Z,40.38
2023-04-21T01:31:41.785Z,40.61
2023-04-21T01:32:41.768Z,40.52
2023-04-21T01:33:41.800Z,40.35
2023-04-21T01:34:41.878Z,40.48
2023-04-21T01:35:41.904Z,40.55
2023-04-21T01:36:41.953Z,40.54
2023-04-21T01:37:42.009Z,40.35
2023-04-21T01:38:42.088Z,40.25
2023-04-21T01:39:42.114Z,40.34
2023-04-21T01:40:42.166Z,40.49
2023-04-21T01:41:42.218Z,40.48
2023-04-21T01:42:42.269Z,40.51
2023-04-21T01:43:42.275Z,40.60
2023-04-21T01:44:42.358Z,40.30
2023-04-21T01:45:42.402Z,40.50
2023-04-21T01:46:42.428Z,40.41
2023-04-21T01:47:42.522Z,40.61
2023-04-21T01:48:42.510Z,40.24
2023-04-21T01:49:42.600Z,40.31
2023-04-21T01:50:42.644Z,40.50
2023-04-21T01:51:42.653Z,40.55
2023-04-21T01:52:42.671Z,40.57
2023-04-21T01:53:42.742Z,40.29
2023-04-21T01:54:42.850Z,40.58
2023-04-21T01:55:42.812Z,40.53
2023-04-21T01:56:42.934Z,40.47
2023-04-21T01:57:42.925Z,40.28
2023-04-21T01:58:42.986Z,40.40
2023-04-21T01:59:43.012Z,40.19
2023-04-21T02:00:43.051Z,40.16
2023-04-21T02:01:43.157Z,40.25
2023-04-21T02:02:43.289Z,40.28
2023-04-21T02:03:43.243Z,40.34
2023-04-21T02:04:43.262Z,40.33
2023-04-21T02:05:43.324Z,40.12
2023-04-21T02:06:43.354Z,40.25
2023-04-21T02:07:43.353Z,40.39
2023-04-21T02:08:43.451Z,40.26
2023-04-21T02:09:43.493Z,40.16
2023-04-21T02:10:43.543Z,40.30
2023-04-21T02:11:43.537Z,40.25
2023-04-21T02:12:43.605Z,40.25
2023-04-21T02:13:43.643Z,40.07
2023-04-21T02:14:43.722Z,39.97
2023-04-21T02:15:43.797Z,40.03
2023-04-21T02:16:43.882Z,40.12
2023-04-21T02:17:43.874Z,40.16
2023-04-21T02:18:43.876Z,40.15
2023-04-21T02:19:43.916Z,39.89
2023-04-21T02:20:43.985Z,40.03
2023-04-21T02:21:44.035Z,40.16
2023-04-21T02:22:44.109Z,40.05
2023-04-21T02:23:44.150Z,40.07
2023-04-21T02:24:44.198Z,40.13
2023-04-21T02:25:44.233Z,40.07
2023-04-21T02:26:44.306Z,40.17
2023-04-21T02:27:44.383Z,40.10
2023-04-21T02:28:44.394Z,40.07
2023-04-21T02:29:44.492Z,39.86
2023-04-21T02:30:44.526Z,39.90
2023-04-21T02:31:58.808Z,39.98
2023-04-21T02:32:45.660Z,40.14
2023-04-21T02:33:44.593Z,40.08
2023-04-21T02:34:44.563Z,40.17
2023-04-21T02:35:44.568Z,39.95
2023-04-21T02:36:44.572Z,40.06
2023-04-21T02:37:44.597Z,40.11
2023-04-21T02:38:44.579Z,40.01
2023-04-21T02:39:44.585Z,39.70
2023-04-21T02:40:44.585Z,39.99
2023-04-21T02:41:44.585Z,40.10
2023-04-21T02:42:44.610Z,39.90
2023-04-21T02:43:44.609Z,39.76
2023-04-21T02:44:44.676Z,39.92
2023-04-21T02:45:44.707Z,39.90
2023-04-21T02:46:44.855Z,39.86
2023-04-21T02:47:44.861Z,39.94
2023-04-21T02:48:44.905Z,39.87
2023-04-21T02:49:44.940Z,39.68
2023-04-21T02:50:45.016Z,39.84
2023-04-21T02:51:45.062Z,39.61
2023-04-21T02:52:45.135Z,39.80
2023-04-21T02:53:45.186Z,39.95
2023-04-21T02:54:45.262Z,39.96
2023-04-21T02:55:45.293Z,39.63
2023-04-21T02:56:45.352Z,39.91
2023-04-21T02:57:45.404Z,39.84
2023-04-21T02:58:45.440Z,39.86
2023-04-21T02:59:45.521Z,39.86
2023-04-21T03:00:45.599Z,39.95
2023-04-21T03:01:45.665Z,39.80
2023-04-21T03:02:45.821Z,39.66
2023-04-21T03:03:45.816Z,39.85
2023-04-21T03:04:45.821Z,39.72
2023-04-21T03:05:45.895Z,39.93
2023-04-21T03:06:45.956Z,39.96
2023-04-21T03:07:45.999Z,39.66
2023-04-21T03:08:46.059Z,39.68
2023-04-21T03:09:46.088Z,39.78
2023-04-21T03:10:46.212Z,39.75
2023-04-21T03:11:46.207Z,39.69
2023-04-21T03:12:46.298Z,39.56
2023-04-21T03:13:46.378Z,39.76
2023-04-21T03:14:47.390Z,39.67
2023-04-21T03:15:46.470Z,39.61
2023-04-21T03:16:46.562Z,39.73
2023-04-21T03:17:46.641Z,39.77
2023-04-21T03:18:46.596Z,39.79
2023-04-21T03:19:46.688Z,39.59
2023-04-21T03:20:46.724Z,39.79
2023-04-21T03:21:46.914Z,39.85
2023-04-21T03:22:46.830Z,39.39
2023-04-21T03:23:46.882Z,39.18
2023-04-21T03:24:46.913Z,39.24
2023-04-21T03:25:46.971Z,39.39
2023-04-21T03:26:47.081Z,39.16
2023-04-21T03:27:47.133Z,39.24
2023-04-21T03:28:47.167Z,39.31
2023-04-21T03:29:47.204Z,39.31
2023-04-21T03:30:47.267Z,39.47
2023-04-21T03:31:47.391Z,39.60
2023-04-21T03:32:47.471Z,39.52
2023-04-21T03:33:47.442Z,39.43
2023-04-21T03:34:47.501Z,39.66
2023-04-21T03:35:47.500Z,39.38
2023-04-21T03:36:47.631Z,39.46
2023-04-21T03:37:47.660Z,39.72
2023-04-21T03:38:47.661Z,39.61
2023-04-21T03:39:47.784Z,39.65
2023-04-21T03:40:47.772Z,39.31
2023-04-21T03:41:47.822Z,39.32
2023-04-21T03:42:47.893Z,39.44
2023-04-21T03:43:47.969Z,39.54
2023-04-21T03:44:48.011Z,39.56
2023-04-21T03:45:48.128Z,39.47
2023-04-21T03:46:48.134Z,39.39
2023-04-21T03:47:48.188Z,39.56
2023-04-21T03:48:48.253Z,39.44
2023-04-21T03:49:48.265Z,39.52
2023-04-21T03:50:48.368Z,39.48
2023-04-21T03:51:48.430Z,39.38
2023-04-21T03:52:48.434Z,39.14
2023-04-21T03:53:48.511Z,39.08
2023-04-21T03:54:48.560Z,39.35
2023-04-21T03:55:48.599Z,39.21
2023-04-21T03:56:48.666Z,39.17
2023-04-21T03:57:48.713Z,39.41
2023-04-21T03:58:48.759Z,39.48
2023-04-21T03:59:48.821Z,39.41
2023-04-21T04:00:48.869Z,39.32
2023-04-21T04:01:48.942Z,39.02
2023-04-21T04:02:49.223Z,39.01
2023-04-21T04:03:49.316Z,39.29
2023-04-21T04:04:49.294Z,39.23
2023-04-21T04:05:49.177Z,38.96
2023-04-21T04:06:49.256Z,39.05
2023-04-21T04:07:49.297Z,38.95
2023-04-21T04:08:49.357Z,39.00
2023-04-21T04:09:49.414Z,39.06
2023-04-21T04:10:49.496Z,38.92
2023-04-21T04:11:49.549Z,38.79
2023-04-21T04:12:49.613Z,38.87
2023-04-21T04:13:49.674Z,38.83
2023-04-21T04:14:49.739Z,38.73
2023-04-21T04:15:49.828Z,38.72
2023-04-21T04:16:49.887Z,38.72
2023-04-21T04:17:49.979Z,38.74
2023-04-21T04:18:50.014Z,38.80
2023-04-21T04:19:50.050Z,38.79
2023-04-21T04:20:50.125Z,38.83
2023-04-21T04:21:50.234Z,38.72
2023-04-21T04:22:50.248Z,38.72
2023-04-21T04:23:50.302Z,38.70
2023-04-21T04:24:50.368Z,38.68
2023-04-21T04:25:50.442Z,38.71
2023-04-21T04:26:50.518Z,38.75
2023-04-21T04:27:50.571Z,38.72
2023-04-21T04:28:50.650Z,38.72
2023-04-21T04:29:50.675Z,38.68
2023-04-21T04:30:50.881Z,38.78
2023-04-21T04:31:50.890Z,38.75
2023-04-21T04:32:50.930Z,38.84
2023-04-21T04:33:52.158Z,38.91
2023-04-21T04:34:50.952Z,38.83
2023-04-21T04:35:50.924Z,38.75
2023-04-21T04:36:50.919Z,38.81
2023-04-21T04:37:50.931Z,38.70
2023-04-21T04:38:50.926Z,38.67
2023-04-21T04:39:50.892Z,38.64
2023-04-21T04:40:50.861Z,38.67
2023-04-21T04:41:50.926Z,38.69
2023-04-21T04:42:50.898Z,38.75
2023-04-21T04:43:50.867Z,38.74
2023-04-21T04:44:50.870Z,38.63
2023-04-21T04:45:50.879Z,38.66
2023-04-21T04:46:50.961Z,38.63
2023-04-21T04:47:50.886Z,38.62
2023-04-21T04:48:50.858Z,38.46
2023-04-21T04:49:50.864Z,38.48
2023-04-21T04:50:50.882Z,38.76
2023-04-21T04:51:50.864Z,38.94
2023-04-21T04:52:50.855Z,39.42
2023-04-21T04:53:50.842Z,39.40
2023-04-21T04:54:50.800Z,39.51
2023-04-21T04:55:50.801Z,39.61
2023-04-21T04:56:50.839Z,39.81
2023-04-21T04:57:50.823Z,39.99
2023-04-21T04:58:50.812Z,40.46
2023-04-21T04:59:50.787Z,40.88
2023-04-21T05:00:50.831Z,41.50
2023-04-21T05:01:50.808Z,42.06
2023-04-21T05:02:50.858Z,42.05
2023-04-21T05:03:51.004Z,42.15
2023-04-21T05:04:50.908Z,42.81
2023-04-21T05:05:50.769Z,42.97
2023-04-21T05:06:50.795Z,43.02
2023-04-21T05:07:50.801Z,43.66
2023-04-21T05:08:50.754Z,43.80
2023-04-21T05:09:50.791Z,43.74
2023-04-21T05:10:50.744Z,43.89
2023-04-21T05:11:50.760Z,44.01
2023-04-21T05:12:50.791Z,44.07
2023-04-21T05:13:50.725Z,43.84
2023-04-21T05:14:50.756Z,43.67
2023-04-21T05:15:50.744Z,44.11
2023-04-21T05:16:50.809Z,44.28
2023-04-21T05:17:50.776Z,44.64
2023-04-21T05:18:50.705Z,44.83
2023-04-21T05:19:50.705Z,45.12
2023-04-21T05:20:50.712Z,45.38
2023-04-21T05:21:50.725Z,45.74
2023-04-21T05:22:50.709Z,45.81
2023-04-21T05:23:50.679Z,45.78
2023-04-21T05:24:50.660Z,46.11
2023-04-21T05:25:50.664Z,46.27
2023-04-21T05:26:50.664Z,46.34
2023-04-21T05:27:50.662Z,46.60
2023-04-21T05:28:50.638Z,46.25
2023-04-21T05:29:50.644Z,46.31
2023-04-21T05:30:50.635Z,45.53
2023-04-21T05:31:50.697Z,45.33
2023-04-21T05:32:50.636Z,44.91
2023-04-21T05:33:50.650Z,45.40
2023-04-21T05:34:50.592Z,42.45
2023-04-21T05:35:50.615Z,43.32
2023-04-21T05:36:50.678Z,43.40
2023-04-21T05:37:50.689Z,44.20
2023-04-21T05:38:50.677Z,44.83
2023-04-21T05:39:50.724Z,44.18
2023-04-21T05:40:50.754Z,43.88
2023-04-21T05:41:50.794Z,44.14
2023-04-21T05:42:50.797Z,44.09
2023-04-21T05:43:50.794Z,44.48
2023-04-21T05:44:50.824Z,44.72
2023-04-21T05:45:50.937Z,44.37
2023-04-21T05:46:51.358Z,44.20
2023-04-21T05:47:50.918Z,44.15
2023-04-21T05:48:50.942Z,44.18
2023-04-21T05:49:50.992Z,43.64
2023-04-21T05:50:50.991Z,43.48
2023-04-21T05:51:51.342Z,43.45
2023-04-21T05:52:51.055Z,44.56
2023-04-21T05:53:51.118Z,44.54
2023-04-21T05:54:51.206Z,43.21
2023-04-21T05:55:51.251Z,43.76
2023-04-21T05:56:51.371Z,43.52
2023-04-21T05:57:51.334Z,43.62
2023-04-21T05:58:51.325Z,43.29
2023-04-21T05:59:51.383Z,43.95
2023-04-21T06:00:51.356Z,44.92
2023-04-21T06:01:51.363Z,45.89
2023-04-21T06:02:51.474Z,45.87
2023-04-21T06:03:51.490Z,46.54
2023-04-21T06:04:51.442Z,46.67
2023-04-21T06:05:51.396Z,46.88
2023-04-21T06:06:51.342Z,47.05
2023-04-21T06:07:51.376Z,47.03
2023-04-21T06:08:51.347Z,47.43
2023-04-21T06:09:51.393Z,47.85
2023-04-21T06:10:51.348Z,48.30
2023-04-21T06:11:51.362Z,48.82
2023-04-21T06:12:51.369Z,49.22
2023-04-21T06:13:51.374Z,49.42
2023-04-21T06:14:51.354Z,49.96
2023-04-21T06:15:51.376Z,49.98
2023-04-21T06:16:51.370Z,50.31
2023-04-21T06:17:51.414Z,50.28
2023-04-21T06:18:51.345Z,50.29
2023-04-21T06:19:51.356Z,50.54
2023-04-21T06:20:51.343Z,50.55
2023-04-21T06:21:51.361Z,50.38
2023-04-21T06:22:51.336Z,50.47
2023-04-21T06:23:51.313Z,50.73
2023-04-21T06:24:51.304Z,50.80
2023-04-21T06:25:51.284Z,50.90
2023-04-21T06:26:51.285Z,51.02
2023-04-21T06:27:51.281Z,51.30
2023-04-21T06:28:51.310Z,51.28
2023-04-21T06:29:51.344Z,51.39
2023-04-21T06:30:51.341Z,50.35
2023-04-21T06:31:51.426Z,51.55
2023-04-21T06:32:51.469Z,51.34
2023-04-21T06:33:51.443Z,51.79
2023-04-21T06:34:51.457Z,52.09
2023-04-21T06:35:51.492Z,52.40
2023-04-21T06:36:51.865Z,52.56
2023-04-21T06:37:51.607Z,52.43
2023-04-21T06:38:51.623Z,52.11
2023-04-21T06:39:51.635Z,51.94
2023-04-21T06:40:51.656Z,51.98
2023-04-21T06:41:51.634Z,51.89
2023-04-21T06:42:51.624Z,52.01
2023-04-21T06:43:51.627Z,52.36
2023-04-21T06:44:51.700Z,52.17
2023-04-21T06:45:51.674Z,52.90
2023-04-21T06:46:51.750Z,51.55
2023-04-21T06:47:51.878Z,51.01
2023-04-21T06:48:51.738Z,51.22
2023-04-21T06:49:51.718Z,51.67
2023-04-21T06:50:51.709Z,52.19
2023-04-21T06:51:51.742Z,51.96
2023-04-21T06:52:51.709Z,52.53
2023-04-21T06:53:51.720Z,51.52
2023-04-21T06:54:51.725Z,52.42
2023-04-21T06:55:51.726Z,52.56
2023-04-21T06:56:51.688Z,52.36
2023-04-21T06:57:51.704Z,52.34
2023-04-21T06:58:51.729Z,52.26
2023-04-21T06:59:51.703Z,52.62
2023-04-21T07:00:51.777Z,52.46
2023-04-21T07:01:51.749Z,52.73
2023-04-21T07:02:51.920Z,52.70
2023-04-21T07:03:51.922Z,52.77
2023-04-21T07:04:51.951Z,53.08
2023-04-21T07:05:51.860Z,53.53
2023-04-21T07:06:51.946Z,53.57
2023-04-21T07:07:52.019Z,53.59
2023-04-21T07:08:52.062Z,53.62
2023-04-21T07:09:52.140Z,53.76
2023-04-21T07:10:52.180Z,53.48
2023-04-21T07:11:52.215Z,53.23
2023-04-21T07:12:52.351Z,52.95
2023-04-21T07:13:52.290Z,52.64
2023-04-21T07:14:52.334Z,52.23
2023-04-21T07:15:52.337Z,52.41
2023-04-21T07:16:52.436Z,52.24
2023-04-21T07:17:52.375Z,51.59
2023-04-21T07:18:52.337Z,52.03
2023-04-21T07:19:52.330Z,51.87
2023-04-21T07:20:52.372Z,52.19
2023-04-21T07:21:52.367Z,52.20
2023-04-21T07:22:52.893Z,51.81
2023-04-21T07:23:52.365Z,52.51
2023-04-21T07:24:52.325Z,52.70
2023-04-21T07:25:52.320Z,52.34
2023-04-21T07:26:52.317Z,51.89
2023-04-21T07:27:52.339Z,52.19
2023-04-21T07:28:52.343Z,52.20
2023-04-21T07:29:52.307Z,52.30
2023-04-21T07:30:52.330Z,52.14
2023-04-21T07:31:52.297Z,51.90
2023-04-21T07:32:52.415Z,51.86
2023-04-21T07:33:52.287Z,52.04
2023-04-21T07:34:52.332Z,52.12
2023-04-21T07:35:52.290Z,52.19
2023-04-21T07:36:52.319Z,51.50
2023-04-21T07:37:52.329Z,50.13
2023-04-21T07:38:52.285Z,51.91
2023-04-21T07:39:52.290Z,52.25
2023-04-21T07:40:52.294Z,52.10
2023-04-21T07:41:52.253Z,52.43
2023-04-21T07:42:52.376Z,52.32
2023-04-21T07:43:53.778Z,52.39
2023-04-21T07:44:52.316Z,52.27
2023-04-21T07:45:52.358Z,52.06
2023-04-21T07:46:52.313Z,51.77
2023-04-21T07:47:52.330Z,51.39
2023-04-21T07:48:52.320Z,50.85
2023-04-21T07:49:52.324Z,51.82
2023-04-21T07:50:52.308Z,52.07
2023-04-21T07:51:52.301Z,51.76
2023-04-21T07:52:52.402Z,51.82
2023-04-21T07:53:52.384Z,52.49
2023-04-21T07:54:52.457Z,52.33
2023-04-21T07:55:52.478Z,53.05
2023-04-21T07:56:52.528Z,53.23
2023-04-21T07:57:52.872Z,53.35
2023-04-21T07:58:52.674Z,53.78
2023-04-21T07:59:52.739Z,53.56
2023-04-21T08:00:52.828Z,53.81
2023-04-21T08:01:52.847Z,53.75
2023-04-21T08:02:53.454Z,53.78
2023-04-21T08:03:53.019Z,53.55
2023-04-21T08:04:53.040Z,53.62
2023-04-21T08:05:53.207Z,53.77
2023-04-21T08:06:53.225Z,54.04
2023-04-21T08:07:53.168Z,54.45
2023-04-21T08:08:53.211Z,54.50
2023-04-21T08:09:53.323Z,54.89
2023-04-21T08:10:53.345Z,55.18
2023-04-21T08:11:53.400Z,55.51
2023-04-21T08:12:53.446Z,55.90
2023-04-21T08:13:53.513Z,55.85
2023-04-21T08:14:56.408Z,55.89
2023-04-21T08:15:53.571Z,56.03
2023-04-21T08:16:56.031Z,56.06
2023-04-21T08:17:53.907Z,55.70
2023-04-21T08:18:53.521Z,55.87
2023-04-21T08:19:53.535Z,55.77
2023-04-21T08:20:53.496Z,55.33
2023-04-21T08:21:53.530Z,55.60
2023-04-21T08:22:53.508Z,55.80
2023-04-21T08:23:53.659Z,55.96
2023-04-21T08:24:53.477Z,56.33
2023-04-21T08:25:53.489Z,56.53
2023-04-21T08:26:53.455Z,56.76
2023-04-21T08:27:53.454Z,56.87
2023-04-21T08:28:53.429Z,56.81
2023-04-21T08:29:53.392Z,56.70
2023-04-21T08:30:53.397Z,56.98
2023-04-21T08:31:53.501Z,57.06
2023-04-21T08:32:53.443Z,57.04
2023-04-21T08:34:01.356Z,56.64
2023-04-21T08:34:54.416Z,56.77
2023-04-21T08:36:03.889Z,56.91
2023-04-21T08:36:54.376Z,56.83
2023-04-21T08:37:53.581Z,56.81
2023-04-21T08:38:53.359Z,56.14
2023-04-21T08:39:53.294Z,55.25
2023-04-21T08:40:53.315Z,55.47
2023-04-21T08:41:53.290Z,55.90
2023-04-21T08:42:53.428Z,55.52
2023-04-21T08:43:53.402Z,55.62
2023-04-21T08:44:53.255Z,55.90
2023-04-21T08:45:53.299Z,55.14
2023-04-21T08:46:53.218Z,55.44
2023-04-21T08:47:53.286Z,55.85
2023-04-21T08:48:55.260Z,55.63
2023-04-21T08:49:53.299Z,55.53
2023-04-21T08:50:53.338Z,54.62
2023-04-21T08:51:53.396Z,54.97
2023-04-21T08:52:53.926Z,54.65
2023-04-21T08:53:53.404Z,54.34
2023-04-21T08:54:53.472Z,54.25
2023-04-21T08:56:09.534Z,53.99
2023-04-21T08:57:01.471Z,53.87
2023-04-21T08:57:54.927Z,52.99
2023-04-21T08:58:53.486Z,53.72
2023-04-21T08:59:53.444Z,53.08
2023-04-21T09:00:53.417Z,53.47
2023-04-21T09:01:53.476Z,53.23
2023-04-21T09:02:59.600Z,53.48
2023-04-21T09:03:54.582Z,53.15
2023-04-21T09:04:53.612Z,53.01
2023-04-21T09:05:53.573Z,53.10
2023-04-21T09:06:53.396Z,52.62
2023-04-21T09:07:53.352Z,52.58
2023-04-21T09:08:53.373Z,52.75
2023-04-21T09:09:53.355Z,52.95
2023-04-21T09:10:55.168Z,52.94
2023-04-21T09:11:53.437Z,51.57
2023-04-21T09:12:53.479Z,53.03
2023-04-21T09:13:53.510Z,53.07
2023-04-21T09:14:53.574Z,52.37
2023-04-21T09:15:53.623Z,52.58
2023-04-21T09:16:53.651Z,52.73
2023-04-21T09:17:53.719Z,52.05
2023-04-21T09:18:53.694Z,52.37
2023-04-21T09:19:53.754Z,51.68
2023-04-21T09:20:53.803Z,51.87
2023-04-21T09:21:53.846Z,51.50
2023-04-21T09:22:53.906Z,51.38
2023-04-21T09:23:53.940Z,51.73
2023-04-21T09:24:53.956Z,51.57
2023-04-21T09:25:54.036Z,52.13
2023-04-21T09:26:54.062Z,52.19
2023-04-21T09:27:54.060Z,51.87
2023-04-21T09:28:54.140Z,51.76
2023-04-21T09:29:54.129Z,51.98
2023-04-21T09:30:54.194Z,52.43
2023-04-21T09:31:54.216Z,52.23
2023-04-21T09:32:54.462Z,51.73
2023-04-21T09:33:58.396Z,51.26
2023-04-21T09:34:55.246Z,51.99
2023-04-21T09:35:54.228Z,52.36
2023-04-21T09:36:54.220Z,52.33
2023-04-21T09:37:54.204Z,52.21
2023-04-21T09:39:08.918Z,52.20
2023-04-21T09:40:04.145Z,51.65
2023-04-21T09:40:55.142Z,51.48
2023-04-21T09:41:54.126Z,50.92
2023-04-21T09:42:54.998Z,52.85
2023-04-21T09:43:54.105Z,52.64
2023-04-21T09:45:10.716Z,51.78
2023-04-21T09:45:55.135Z,51.45
2023-04-21T09:46:54.192Z,51.90
2023-04-21T09:47:54.124Z,51.58
2023-04-21T09:48:54.088Z,51.03
2023-04-21T09:49:54.932Z,48.30
2023-04-21T09:51:24.928Z,50.10
2023-04-21T09:52:54.058Z,49.99
2023-04-21T09:53:54.004Z,50.14
2023-04-21T09:54:54.047Z,49.86
2023-04-21T09:55:54.014Z,49.90
2023-04-21T09:56:54.041Z,49.93
2023-04-21T09:57:54.007Z,50.01
2023-04-21T09:58:54.014Z,49.95
2023-04-21T09:59:54.011Z,49.82
2023-04-21T10:00:53.980Z,50.05
2023-04-21T10:01:54.041Z,50.25
2023-04-21T10:02:54.021Z,50.38
2023-04-21T10:03:54.133Z,50.28
2023-04-21T10:04:54.473Z,50.59
2023-04-21T10:05:54.068Z,50.28
2023-04-21T10:06:54.053Z,50.32
2023-04-21T10:07:54.071Z,50.34
2023-04-21T10:08:54.086Z,50.25
2023-04-21T10:09:54.117Z,49.88
2023-04-21T10:10:54.135Z,49.80
2023-04-21T10:11:54.203Z,49.87
2023-04-21T10:12:54.219Z,49.93
2023-04-21T10:13:54.245Z,50.07
2023-04-21T10:14:54.250Z,50.12
2023-04-21T10:15:54.297Z,50.53
2023-04-21T10:16:54.326Z,50.62
2023-04-21T10:17:54.422Z,50.57
2023-04-21T10:18:54.411Z,50.51
2023-04-21T10:19:54.415Z,50.50
2023-04-21T10:20:54.434Z,50.37
2023-04-21T10:21:54.482Z,50.35
2023-04-21T10:22:54.470Z,50.37
2023-04-21T10:23:54.512Z,50.34
2023-04-21T10:24:54.526Z,50.23
2023-04-21T10:25:54.569Z,50.27
2023-04-21T10:26:55.383Z,50.11
2023-04-21T10:27:54.566Z,50.52
2023-04-21T10:28:54.604Z,50.36
2023-04-21T10:29:57.115Z,50.36
2023-04-21T10:30:54.866Z,50.27
2023-04-21T10:31:54.868Z,50.35
2023-04-21T10:32:54.975Z,50.58
2023-04-21T10:33:54.930Z,50.54
2023-04-21T10:34:54.931Z,50.64
2023-04-21T10:35:54.974Z,50.27
2023-04-21T10:36:55.111Z,50.75
2023-04-21T10:37:55.055Z,50.56
2023-04-21T10:38:55.473Z,50.46
2023-04-21T10:39:55.122Z,49.73
2023-04-21T10:40:55.094Z,49.83
2023-04-21T10:41:55.160Z,49.28
2023-04-21T10:42:55.107Z,47.08
2023-04-21T10:43:55.119Z,46.47
2023-04-21T10:44:55.167Z,47.22
2023-04-21T10:45:55.158Z,47.20
2023-04-21T10:46:55.214Z,47.27
2023-04-21T10:47:55.177Z,47.55
2023-04-21T10:48:55.445Z,46.46
2023-04-21T10:49:55.183Z,45.75
2023-04-21T10:50:55.189Z,45.61
2023-04-21T10:51:55.201Z,45.94
2023-04-21T10:52:55.218Z,45.92
2023-04-21T10:53:55.258Z,46.33
2023-04-21T10:54:55.248Z,46.26
2023-04-21T10:55:55.287Z,46.10
2023-04-21T10:56:55.311Z,46.37
2023-04-21T10:57:55.307Z,46.85
2023-04-21T10:58:55.306Z,47.21
2023-04-21T10:59:55.678Z,47.67
2023-04-21T11:00:55.407Z,47.63
2023-04-21T11:01:55.382Z,47.31
2023-04-21T11:02:55.505Z,47.86
2023-04-21T11:03:55.579Z,48.44
2023-04-21T11:04:56.736Z,48.55
2023-04-21T11:05:55.444Z,48.75
2023-04-21T11:06:55.440Z,48.80
2023-04-21T11:07:55.451Z,48.65
2023-04-21T11:08:55.467Z,48.61
2023-04-21T11:09:55.482Z,48.47
2023-04-21T11:10:55.541Z,48.16
2023-04-21T11:11:55.515Z,47.75
2023-04-21T11:12:55.520Z,47.55
2023-04-21T11:13:55.538Z,47.51
2023-04-21T11:14:55.571Z,47.53
2023-04-21T11:15:55.585Z,47.77
2023-04-21T11:16:55.577Z,47.90
2023-04-21T11:17:55.609Z,48.13
2023-04-21T11:18:55.615Z,48.04
2023-04-21T11:19:55.590Z,48.10
2023-04-21T11:20:55.613Z,47.98
2023-04-21T11:21:55.625Z,48.06
2023-04-21T11:22:55.613Z,48.44
2023-04-21T11:23:55.990Z,48.36
2023-04-21T11:24:55.768Z,48.63
2023-04-21T11:25:55.653Z,48.77
2023-04-21T11:26:55.690Z,48.94
2023-04-21T11:27:55.687Z,48.52
2023-04-21T11:28:55.944Z,48.68
2023-04-21T11:29:55.731Z,48.72
2023-04-21T11:30:55.791Z,48.38
2023-04-21T11:31:55.750Z,48.14
2023-04-21T11:32:55.797Z,47.99
2023-04-21T11:33:55.817Z,47.87
2023-04-21T11:34:55.812Z,47.75
2023-04-21T11:35:55.857Z,47.63
2023-04-21T11:36:55.863Z,47.62
2023-04-21T11:37:55.900Z,47.62
2023-04-21T11:38:55.904Z,47.64
2023-04-21T11:39:55.892Z,48.04
2023-04-21T11:40:55.957Z,48.51
2023-04-21T11:41:55.928Z,48.59
2023-04-21T11:42:55.972Z,48.68
2023-04-21T11:43:56.005Z,48.71
2023-04-21T11:44:56.025Z,48.51
2023-04-21T11:45:56.010Z,48.39
2023-04-21T11:46:56.042Z,48.27
2023-04-21T11:47:56.069Z,48.20
2023-04-21T11:48:56.055Z,48.16
2023-04-21T11:49:56.129Z,48.03
2023-04-21T11:50:56.065Z,48.05
2023-04-21T11:51:56.142Z,48.17
2023-04-21T11:52:56.082Z,48.25
2023-04-21T11:53:56.092Z,48.72
2023-04-21T11:54:56.119Z,48.65
2023-04-21T11:55:56.270Z,49.12
2023-04-21T11:56:56.185Z,49.01
2023-04-21T11:57:56.168Z,49.13
2023-04-21T11:58:56.305Z,48.90
2023-04-21T11:59:56.225Z,49.13
2023-04-21T12:00:56.360Z,48.95
2023-04-21T12:01:56.210Z,48.86
2023-04-21T12:02:56.519Z,48.73
2023-04-21T12:03:56.488Z,48.76
2023-04-21T12:04:56.571Z,48.77
2023-04-21T12:05:57.245Z,48.70
2023-04-21T12:06:56.345Z,48.56
2023-04-21T12:07:56.393Z,48.57
2023-04-21T12:08:56.356Z,48.66
2023-04-21T12:09:56.338Z,48.81
2023-04-21T12:10:56.366Z,49.17
2023-04-21T12:11:56.492Z,49.48
2023-04-21T12:12:56.411Z,49.46
2023-04-21T12:13:56.465Z,49.52
2023-04-21T12:14:56.447Z,49.61
2023-04-21T12:15:56.530Z,49.66
2023-04-21T12:16:56.496Z,49.56
2023-04-21T12:17:56.594Z,49.40
2023-04-21T12:18:56.550Z,49.13
2023-04-21T12:19:56.548Z,49.03
2023-04-21T12:20:56.628Z,49.01
2023-04-21T12:21:56.644Z,48.89
2023-04-21T12:22:56.638Z,48.71
2023-04-21T12:23:56.626Z,48.60
2023-04-21T12:24:56.645Z,48.63
2023-04-21T12:25:56.781Z,48.54
2023-04-21T12:26:56.679Z,48.88
2023-04-21T12:27:56.706Z,49.27
2023-04-21T12:28:56.721Z,48.65
2023-04-21T12:29:56.755Z,48.50
2023-04-21T12:30:56.784Z,48.74
2023-04-21T12:31:56.902Z,48.65
2023-04-21T12:32:56.844Z,48.82
2023-04-21T12:33:56.866Z,48.80
2023-04-21T12:34:56.806Z,48.59
2023-04-21T12:35:56.831Z,48.77
2023-04-21T12:36:56.874Z,48.35
2023-04-21T12:37:56.866Z,48.18
2023-04-21T12:38:56.906Z,48.11
2023-04-21T12:39:56.888Z,47.86
2023-04-21T12:40:56.905Z,47.89
2023-04-21T12:41:56.890Z,48.56
2023-04-21T12:42:56.911Z,48.65
2023-04-21T12:43:57.123Z,49.06
2023-04-21T12:44:56.919Z,49.26
2023-04-21T12:45:57.017Z,49.25
2023-04-21T12:46:56.947Z,49.07
2023-04-21T12:47:57.018Z,49.06
2023-04-21T12:48:56.983Z,48.99
2023-04-21T12:49:56.987Z,48.42
2023-04-21T12:50:57.023Z,48.36
2023-04-21T12:51:57.060Z,48.60
2023-04-21T12:52:57.084Z,48.54
2023-04-21T12:53:57.063Z,48.32